This is the latest recevied weather packets stored in our database for station/object WMKP. If no packets are shown the sender has not sent any weather packets the latest 1 day(s).
| Time | Temp. | Humidity | Pressure | Rain* | Wind** | Luminosity | Snow |
|---|---|---|---|---|---|---|---|
| 1778098235 | 26.67° C | 88% | 1006 hPa | - | - | - | - |
| 1778096409 | 26.67° C | 88% | 1006 hPa | - | - | - | - |
| 1778094627 | 26.67° C | 88% | 1006 hPa | - | - | - | - |
| 1778092812 | 26.67° C | 88% | 1007 hPa | - | - | - | - |
| 1778089209 | 26.67° C | 88% | 1008 hPa | - | - | - | - |
| 1778087428 | 26.67° C | 88% | 1008 hPa | - | - | - | - |
| 1778074815 | 27.78° C | 88% | 1007 hPa | - | - | - | - |
| 1778073028 | 27.78° C | 83% | 1007 hPa | - | - | - | - |
| 1778071208 | 28.89° C | 79% | 1006 hPa | - | - | - | - |
| 1778069434 | 28.89° C | 79% | 1006 hPa | - | - | - | - |
| 1778062226 | 28.89° C | 79% | 1005 hPa | - | - | - | - |
| 1778056808 | 28.89° C | 74% | 1005 hPa | - | - | - | - |
| 1778053208 | 30° C | 70% | 1006 hPa | - | - | - | - |
| 1778051434 | 30.56° C | 66% | 1006 hPa | - | - | - | - |
| 1778049611 | 30.56° C | 70% | 1007 hPa | - | - | - | - |
| 1778046008 | 30.56° C | 70% | 1008 hPa | - | - | - | - |
| 1778044227 | 30.56° C | 74% | 1008 hPa | - | - | - | - |
| 1778040627 | 30° C | 74% | 1009 hPa | - | - | - | - |
| 1778033425 | 30° C | 79% | 1009 hPa | - | - | - | - |
| 1778026227 | 25.56° C | 88% | 1008 hPa | - | - | - | - |
| 1778020815 | 25° C | 88% | 1007 hPa | - | - | - | - |
| 1778016600 | 25° C | 88% | 1007 hPa | - | - | - | - |
| 1778013612 | 23.89° C | 94% | 1007 hPa | - | - | - | - |
* Rain since midnight (hover to see other rain measurements)
** Current wind speed in m/s (hover to see current wind gust speed)